Time;durP1;ratioP1;P1;durP2;ratioP2;P2;SDS_P1;SDS_P2;PMS_P1;PMS_P2;Temp;Humidity;BMP_temperature;BMP_pressure;BME280_temperature;BME280_humidity;BME280_pressure;Samples;Min_cycle;Max_cycle;Signal;HPM_P1;HPM_P2
2021/12/05 00:17:04;;;;;;;;;;;;;;;3.61;100.00;99654.16;5036067;28;19944;-80
2021/12/05 00:19:48;;;;;;;;;;;;;;;3.76;100.00;99680.00;5033810;28;19924;-78
2021/12/05 00:22:24;;;;;;;;;;;;;;;3.74;100.00;99679.91;5015960;28;19990;-79
2021/12/05 00:24:53;;;;;;;;;;;;;;;3.82;100.00;99668.94;5015679;28;19917;-78
2021/12/05 00:27:26;;;;;;;;;;;;;;;3.79;100.00;99680.09;5015892;28;19916;-79
2021/12/05 00:30:09;;;;;;;;;;;;;;;3.78;100.00;99678.31;5015428;28;19967;-77
2021/12/05 00:48:44;;;;;;;;;;;;;;;3.73;100.00;99664.22;5032695;28;19913;-78
2021/12/05 01:02:20;;;;;;;;;;;;;;;3.67;100.00;99669.16;5032365;28;19916;-79
2021/12/05 01:09:49;;;;;;;;;;;;;;;3.67;100.00;99658.75;5032591;28;19913;-77
2021/12/05 01:17:19;;;;;;;;;;;;;;;3.75;100.00;99667.78;5032094;28;19917;-80
2021/12/05 01:19:44;;;;;;;;;;;;;;;3.75;100.00;99671.25;5014381;28;19924;-80
2021/12/05 01:22:12;;;;;;;;;;;;;;;3.76;100.00;99669.56;5013564;28;19917;-77
2021/12/05 01:37:10;;;;;;;;;;;;;;;3.59;100.00;99666.22;5032318;28;19920;-79
2021/12/05 01:47:54;;;;;;;;;;;;;;;3.54;100.00;99668.59;5031767;28;20376;-79
2021/12/05 02:33:30;;;;;;;;;;;;;;;3.56;100.00;99658.28;5018749;28;19924;-79
2021/12/05 02:39:06;;;;;;;;;;;;;;;3.57;100.00;99660.94;5034978;28;19971;-79
2021/12/05 02:41:23;;;;;;;;;;;;;;;3.55;100.00;99656.47;5036631;28;20039;-77
2021/12/05 02:43:58;;;;;;;;;;;;;;;3.52;100.00;99666.75;5019884;28;20270;-76
2021/12/05 02:46:25;;;;;;;;;;;;;;;3.53;100.00;99656.41;5036841;28;19928;-78
2021/12/05 02:48:51;;;;;;;;;;;;;;;3.53;100.00;99639.91;5017763;28;19917;-78
2021/12/05 02:51:21;;;;;;;;;;;;;;;3.51;100.00;99652.84;5017022;28;19936;-78
2021/12/05 02:53:51;;;;;;;;;;;;;;;3.50;100.00;99652.78;5011568;28;19924;-76
2021/12/05 02:56:17;;;;;;;;;;;;;;;3.49;100.00;99653.59;5017496;28;19966;-78
2021/12/05 02:58:55;;;;;;;;;;;;;;;3.47;100.00;99648.31;5016935;28;19917;-78
2021/12/05 03:01:41;;;;;;;;;;;;;;;3.44;100.00;99644.69;5017494;28;19917;-78
2021/12/05 03:04:08;;;;;;;;;;;;;;;3.40;100.00;99654.97;5017423;28;20064;-75
2021/12/05 03:06:34;;;;;;;;;;;;;;;3.41;100.00;99655.84;5017237;28;20295;-79
2021/12/05 03:09:05;;;;;;;;;;;;;;;3.38;100.00;99643.56;5000866;28;19976;-76
2021/12/05 03:11:31;;;;;;;;;;;;;;;3.43;100.00;99646.38;5017207;28;19917;-79
2021/12/05 03:13:56;;;;;;;;;;;;;;;3.43;100.00;99649.00;5016102;28;19924;-79
2021/12/05 03:16:22;;;;;;;;;;;;;;;3.40;100.00;99644.56;5016932;28;19920;-79
2021/12/05 03:18:47;;;;;;;;;;;;;;;3.37;100.00;99641.81;5016831;28;19995;-80
2021/12/05 03:21:13;;;;;;;;;;;;;;;3.37;100.00;99648.72;5017025;28;20284;-80
2021/12/05 03:23:40;;;;;;;;;;;;;;;3.33;100.00;99647.69;5017225;28;20234;-80
2021/12/05 03:26:07;;;;;;;;;;;;;;;3.32;100.00;99642.41;5016418;28;19917;-78
2021/12/05 03:28:32;;;;;;;;;;;;;;;3.30;100.00;99650.16;5017043;28;19932;-78
2021/12/05 03:30:58;;;;;;;;;;;;;;;3.29;100.00;99644.88;5016808;28;20256;-77
2021/12/05 03:33:23;;;;;;;;;;;;;;;3.26;100.00;99642.13;5018734;28;19983;-79
2021/12/05 03:35:49;;;;;;;;;;;;;;;3.26;100.00;99650.81;5017036;28;20440;-78
2021/12/05 03:38:14;;;;;;;;;;;;;;;3.29;100.00;99656.16;5016571;28;20412;-79
2021/12/05 03:40:39;;;;;;;;;;;;;;;3.26;100.00;99658.63;5016056;28;19920;-76
2021/12/05 03:43:06;;;;;;;;;;;;;;;3.28;100.00;99657.00;5016550;28;19923;-79
2021/12/05 03:45:34;;;;;;;;;;;;;;;3.32;100.00;99652.81;5015516;28;19924;-77
2021/12/05 03:48:00;;;;;;;;;;;;;;;3.29;100.00;99650.09;5015948;28;19923;-78
2021/12/05 03:50:25;;;;;;;;;;;;;;;3.30;100.00;99657.97;5016620;28;20003;-79
2021/12/05 03:52:51;;;;;;;;;;;;;;;3.29;100.00;99655.28;5016390;28;19917;-78
2021/12/05 03:55:16;;;;;;;;;;;;;;;3.29;100.00;99661.38;5015669;28;19917;-77
2021/12/05 03:57:42;;;;;;;;;;;;;;;3.27;100.00;99664.75;5016166;28;20249;-77
2021/12/05 04:00:09;;;;;;;;;;;;;;;3.19;100.00;99665.28;5016167;28;20344;-78
2021/12/05 04:02:35;;;;;;;;;;;;;;;3.15;100.00;99652.94;5015294;28;20452;-80
2021/12/05 04:05:00;;;;;;;;;;;;;;;3.15;100.00;99657.25;5016360;28;19917;-78
2021/12/05 04:07:26;;;;;;;;;;;;;;;3.13;100.00;99659.78;5016568;28;20264;-79
2021/12/05 04:09:51;;;;;;;;;;;;;;;3.15;100.00;99663.34;5020712;28;19921;-77
2021/12/05 04:12:16;;;;;;;;;;;;;;;3.11;100.00;99660.53;5023369;28;20162;-79
2021/12/05 04:14:43;;;;;;;;;;;;;;;3.05;100.00;99663.75;5022250;28;20268;-78
2021/12/05 04:17:10;;;;;;;;;;;;;;;3.05;100.00;99663.75;5015260;28;20272;-79
2021/12/05 04:19:36;;;;;;;;;;;;;;;3.05;100.00;99668.94;5017168;28;19917;-79
2021/12/05 04:22:02;;;;;;;;;;;;;;;3.02;100.00;99667.09;5024644;28;19917;-78
2021/12/05 04:24:27;;;;;;;;;;;;;;;3.05;100.00;99671.53;5037881;28;20015;-78
2021/12/05 04:26:53;;;;;;;;;;;;;;;3.07;100.00;99675.09;5035845;28;19956;-78
2021/12/05 04:29:18;;;;;;;;;;;;;;;3.05;100.00;99671.53;5030520;28;19927;-79
2021/12/05 04:31:44;;;;;;;;;;;;;;;3.07;100.00;99674.22;5015734;28;19917;-79
2021/12/05 04:34:11;;;;;;;;;;;;;;;3.08;100.00;99671.69;5015352;28;19917;-78
2021/12/05 04:36:37;;;;;;;;;;;;;;;3.09;100.00;99676.06;5015243;28;19917;-79
2021/12/05 04:39:04;;;;;;;;;;;;;;;3.08;100.00;99676.91;5016078;28;20012;-79
2021/12/05 04:41:29;;;;;;;;;;;;;;;3.08;100.00;99670.78;5035698;28;19916;-79
2021/12/05 04:43:57;;;;;;;;;;;;;;;3.09;100.00;99677.78;5034418;28;20241;-78
2021/12/05 04:46:23;;;;;;;;;;;;;;;3.11;100.00;99682.25;5035209;28;19920;-78
2021/12/05 04:48:51;;;;;;;;;;;;;;;3.11;100.00;99673.53;5016650;28;19924;-80
2021/12/05 04:51:17;;;;;;;;;;;;;;;3.14;100.00;99682.38;5033556;28;19983;-78
2021/12/05 04:53:43;;;;;;;;;;;;;;;3.12;100.00;99680.53;5035626;28;20351;-79
2021/12/05 04:56:09;;;;;;;;;;;;;;;3.13;100.00;99682.31;5018230;28;19921;-79
2021/12/05 04:58:35;;;;;;;;;;;;;;;3.15;100.00;99685.88;5031929;28;20360;-79
2021/12/05 05:01:00;;;;;;;;;;;;;;;3.13;100.00;99691.00;5017903;28;19923;-77
2021/12/05 05:03:26;;;;;;;;;;;;;;;3.13;100.00;99688.41;5015642;28;19920;-79
2021/12/05 05:05:59;;;;;;;;;;;;;;;3.17;100.00;99692.94;5015151;28;19916;-79
2021/12/05 05:08:27;;;;;;;;;;;;;;;3.13;100.00;99695.31;5015336;28;19917;-77
2021/12/05 05:10:52;;;;;;;;;;;;;;;3.08;100.00;99694.19;5015736;28;19964;-79
2021/12/05 05:13:17;;;;;;;;;;;;;;;3.07;100.00;99697.63;5014331;28;20399;-79
2021/12/05 05:15:43;;;;;;;;;;;;;;;3.00;100.00;99699.06;5024697;28;19923;-78
2021/12/05 05:18:10;;;;;;;;;;;;;;;2.97;100.00;99705.00;5034410;28;19951;-78
2021/12/05 05:39:39;;;;;;;;;;;;;;;2.79;100.00;99714.50;5037382;28;20070;-78
2021/12/05 05:45:45;;;;;;;;;;;;;;;2.65;100.00;99714.72;5051955;28;19971;-79
2021/12/05 05:50:23;;;;;;;;;;;;;;;2.58;100.00;99725.63;5032372;28;19940;-80
2021/12/05 05:52:49;;;;;;;;;;;;;;;2.56;100.00;99722.03;5027663;28;19990;-77
2021/12/05 05:55:14;;;;;;;;;;;;;;;2.51;100.00;99726.13;5020365;28;19921;-80
2021/12/05 05:57:58;;;;;;;;;;;;;;;2.47;100.00;99732.91;5034339;28;19917;-79
2021/12/05 06:00:37;;;;;;;;;;;;;;;2.46;100.00;99728.50;5032375;28;19925;-79
2021/12/05 06:03:22;;;;;;;;;;;;;;;2.44;100.00;99740.53;5032794;28;19917;-77
2021/12/05 06:05:53;;;;;;;;;;;;;;;2.44;100.00;99737.03;5029889;28;20574;-80
2021/12/05 06:08:20;;;;;;;;;;;;;;;2.48;100.00;99734.66;5015386;28;20280;-80
2021/12/05 06:10:46;;;;;;;;;;;;;;;2.48;100.00;99742.44;5031171;28;19921;-80
2021/12/05 06:13:12;;;;;;;;;;;;;;;2.47;100.00;99747.56;5036196;28;20323;-79
2021/12/05 06:15:37;;;;;;;;;;;;;;;2.48;100.00;99744.16;5026511;28;19920;-79
2021/12/05 06:18:03;;;;;;;;;;;;;;;2.46;100.00;99749.28;5034281;28;20359;-79
2021/12/05 06:20:29;;;;;;;;;;;;;;;2.42;100.00;99752.53;5020616;28;20380;-77
2021/12/05 06:22:54;;;;;;;;;;;;;;;2.45;100.00;99749.22;5036589;28;19952;-77
2021/12/05 06:25:23;;;;;;;;;;;;;;;2.34;100.00;99762.53;5037793;28;19947;-79
2021/12/05 06:27:50;;;;;;;;;;;;;;;2.32;100.00;99758.09;5039443;28;20014;-77
2021/12/05 06:38:54;;;;;;;;;;;;;;;2.46;100.00;99797.78;5055616;28;20002;-79
2021/12/05 06:46:51;;;;;;;;;;;;;;;2.61;100.00;99808.97;5055754;28;19942;-79
2021/12/05 06:49:16;;;;;;;;;;;;;;;2.64;100.00;99798.72;5037419;28;20415;-80
2021/12/05 06:51:42;;;;;;;;;;;;;;;2.67;100.00;99801.47;5036767;28;19917;-79
2021/12/05 06:54:08;;;;;;;;;;;;;;;2.69;100.00;99801.56;5037721;28;19971;-79
2021/12/05 06:56:33;;;;;;;;;;;;;;;2.69;100.00;99810.22;5039200;28;20371;-77
2021/12/05 06:58:58;;;;;;;;;;;;;;;2.75;100.00;99804.47;5037974;28;20333;-79
2021/12/05 07:01:24;;;;;;;;;;;;;;;2.75;100.00;99814.88;5037681;28;20406;-79
2021/12/05 07:03:50;;;;;;;;;;;;;;;2.75;100.00;99812.25;5037149;28;19916;-79
2021/12/05 07:06:23;;;;;;;;;;;;;;;2.75;100.00;99824.34;5037134;28;19924;-79
2021/12/05 07:08:50;;;;;;;;;;;;;;;2.77;100.00;99815.81;5037242;28;19920;-78
2021/12/05 07:19:19;;;;;;;;;;;;;;;2.83;100.00;99826.53;5053346;28;20375;-79
2021/12/05 07:21:56;;;;;;;;;;;;;;;2.83;100.00;99829.13;5035751;28;19916;-80
2021/12/05 07:40:30;;;;;;;;;;;;;;;2.74;100.00;99854.66;5053941;28;19923;-79
2021/12/05 07:42:57;;;;;;;;;;;;;;;2.73;100.00;99854.59;5035713;28;19927;-77
2021/12/05 07:45:25;;;;;;;;;;;;;;;2.75;100.00;99864.25;5036346;28;19924;-78
2021/12/05 07:47:51;;;;;;;;;;;;;;;2.73;100.00;99863.25;5036414;28;19917;-79
2021/12/05 07:50:17;;;;;;;;;;;;;;;2.75;100.00;99865.94;5036940;28;19916;-78
2021/12/05 07:52:47;;;;;;;;;;;;;;;2.79;100.00;99871.38;5036588;28;20002;-77
2021/12/05 07:55:23;;;;;;;;;;;;;;;2.75;100.00;99874.66;5035429;28;19917;-78
2021/12/05 08:00:32;;;;;;;;;;;;;;;2.68;100.00;99883.81;5053962;28;19963;-79
2021/12/05 08:16:44;;;;;;;;;;;;;;;2.85;100.00;99899.41;5054258;28;20291;-80
2021/12/05 08:19:10;;;;;;;;;;;;;;;2.85;100.00;99899.41;5036092;28;19917;-79
2021/12/05 08:21:35;;;;;;;;;;;;;;;2.87;100.00;99903.88;5035964;28;19991;-78
2021/12/05 08:24:01;;;;;;;;;;;;;;;2.91;100.00;99896.25;5035720;28;19924;-79
2021/12/05 08:26:32;;;;;;;;;;;;;;;2.96;100.00;99907.78;5035717;28;19916;-78
2021/12/05 08:29:06;;;;;;;;;;;;;;;2.95;100.00;99908.56;5019647;28;20070;-79
2021/12/05 09:31:00;;;;;;;;;;;;;;;3.71;100.00;100004.34;5053122;28;19916;-79
2021/12/05 10:09:33;;;;;;;;;;;;;;;3.90;100.00;100074.78;5046755;28;19998;-79
2021/12/05 10:34:00;;;;;;;;;;;;;;;4.00;100.00;100101.28;5056655;28;19924;-79
2021/12/05 10:36:27;;;;;;;;;;;;;;;4.10;100.00;100100.91;5038548;28;20321;-79
2021/12/05 10:38:55;;;;;;;;;;;;;;;4.25;100.00;100114.69;5038872;28;19923;-79
2021/12/05 10:43:59;;;;;;;;;;;;;;;4.21;100.00;100111.88;5055704;28;19946;-77
2021/12/05 10:46:25;;;;;;;;;;;;;;;4.26;100.00;100119.09;5038169;28;19916;-77
2021/12/05 10:48:53;;;;;;;;;;;;;;;4.30;100.00;100122.75;5038201;28;19917;-78
2021/12/05 10:51:20;;;;;;;;;;;;;;;4.53;100.00;100129.09;5037711;28;19921;-77
2021/12/05 10:53:45;;;;;;;;;;;;;;;4.80;100.00;100133.84;5037819;28;19943;-79
2021/12/05 10:56:33;;;;;;;;;;;;;;;4.83;100.00;100131.38;5054204;28;20328;-79
2021/12/05 10:59:34;;;;;;;;;;;;;;;4.92;100.00;100136.16;5037968;28;19924;-77
2021/12/05 11:02:01;;;;;;;;;;;;;;;5.07;100.00;100141.22;5027347;28;19921;-78
2021/12/05 11:04:29;;;;;;;;;;;;;;;5.01;100.00;100136.59;5038025;28;19916;-78
2021/12/05 11:07:03;;;;;;;;;;;;;;;4.91;100.00;100142.19;5037714;28;19916;-76
2021/12/05 11:09:31;;;;;;;;;;;;;;;4.81;100.00;100140.84;5037426;28;20316;-79
2021/12/05 11:12:00;;;;;;;;;;;;;;;4.83;100.00;100147.94;5054701;28;20433;-78
2021/12/05 11:14:28;;;;;;;;;;;;;;;4.91;100.00;100136.97;5039997;28;19971;-78
2021/12/05 11:16:55;;;;;;;;;;;;;;;4.94;100.00;100147.53;5042677;28;20352;-77
2021/12/05 11:19:26;;;;;;;;;;;;;;;4.98;100.00;100150.38;5037662;28;19967;-76
2021/12/05 11:22:00;;;;;;;;;;;;;;;5.12;100.00;100140.56;5037633;28;19924;-78
2021/12/05 11:24:27;;;;;;;;;;;;;;;4.97;100.00;100146.00;5035367;28;20007;-78
2021/12/05 11:27:05;;;;;;;;;;;;;;;4.98;100.00;100142.53;5033974;28;20340;-78
2021/12/05 11:29:42;;;;;;;;;;;;;;;5.00;100.00;100148.75;5030065;28;20372;-79
2021/12/05 11:32:09;;;;;;;;;;;;;;;4.91;100.00;100142.19;5041461;28;19920;-76
2021/12/05 11:34:34;;;;;;;;;;;;;;;4.83;100.00;100145.34;5036396;28;19999;-78
2021/12/05 11:36:59;;;;;;;;;;;;;;;4.72;100.00;100138.69;5033507;28;20004;-78
2021/12/05 11:39:25;;;;;;;;;;;;;;;4.74;100.00;100150.13;5028348;28;19917;-78
2021/12/05 11:41:50;;;;;;;;;;;;;;;4.71;100.00;100159.47;5036205;28;19916;-78
2021/12/05 11:44:17;;;;;;;;;;;;;;;4.81;100.00;100154.78;5037269;28;19917;-76
2021/12/05 11:46:44;;;;;;;;;;;;;;;4.91;100.00;100160.44;5037771;28;20344;-78
2021/12/05 11:49:15;;;;;;;;;;;;;;;5.04;100.00;100161.09;5037689;28;20318;-78
2021/12/05 11:51:47;;;;;;;;;;;;;;;5.22;100.00;100168.91;5037832;28;20260;-78
2021/12/05 11:54:32;;;;;;;;;;;;;;;5.28;100.00;100167.38;5037411;28;19917;-78
2021/12/05 11:57:03;;;;;;;;;;;;;;;5.38;100.00;100170.50;5038033;28;19965;-78
2021/12/05 11:59:35;;;;;;;;;;;;;;;5.51;100.00;100173.66;5037281;28;20456;-79
2021/12/05 12:02:09;;;;;;;;;;;;;;;5.53;100.00;100178.16;5037909;28;19944;-79
2021/12/05 12:04:37;;;;;;;;;;;;;;;5.67;100.00;100189.22;5037924;28;19966;-77
2021/12/05 12:07:14;;;;;;;;;;;;;;;5.58;100.00;100180.97;5040225;28;19923;-82
2021/12/05 12:09:41;;;;;;;;;;;;;;;5.46;100.00;100193.47;5038020;28;20533;-79
2021/12/05 12:12:06;;;;;;;;;;;;;;;5.48;100.00;100189.19;5037372;28;19916;-79
2021/12/05 12:14:32;;;;;;;;;;;;;;;5.48;100.00;100179.63;5022480;28;20372;-79
2021/12/05 12:16:58;;;;;;;;;;;;;;;5.33;100.00;100182.47;5020225;28;19921;-77
2021/12/05 12:19:25;;;;;;;;;;;;;;;5.54;100.00;100184.25;5017307;28;20010;-79
2021/12/05 12:21:56;;;;;;;;;;;;;;;5.82;100.00;100188.13;5020861;28;19917;-79
2021/12/05 12:24:21;;;;;;;;;;;;;;;5.66;100.00;100192.66;5017069;28;19943;-79
2021/12/05 12:26:47;;;;;;;;;;;;;;;5.90;100.00;100202.41;5026275;28;20344;-80
2021/12/05 12:29:16;;;;;;;;;;;;;;;5.68;100.00;100200.56;5036872;28;20363;-80
2021/12/05 12:31:44;;;;;;;;;;;;;;;5.71;100.00;100206.81;5037271;28;19923;-79
2021/12/05 12:34:11;;;;;;;;;;;;;;;5.64;100.00;100203.84;5035769;28;19982;-77
2021/12/05 12:36:38;;;;;;;;;;;;;;;5.71;100.00;100212.03;5036509;28;19967;-79
2021/12/05 12:39:05;;;;;;;;;;;;;;;5.81;100.00;100212.44;5036823;28;19921;-79
2021/12/05 12:41:31;;;;;;;;;;;;;;;5.85;100.00;100220.47;5036548;28;19924;-79
2021/12/05 12:44:01;;;;;;;;;;;;;;;5.79;100.00;100214.97;5036572;28;19913;-78
2021/12/05 12:46:30;;;;;;;;;;;;;;;5.78;100.00;100222.75;5037722;28;20248;-78
2021/12/05 12:48:55;;;;;;;;;;;;;;;5.70;100.00;100236.38;5036590;28;19943;-79
2021/12/05 12:51:37;;;;;;;;;;;;;;;5.65;100.00;100221.31;5036879;28;20337;-79
2021/12/05 12:54:06;;;;;;;;;;;;;;;5.64;100.00;100229.97;5035964;28;19995;-79
2021/12/05 12:56:31;;;;;;;;;;;;;;;5.45;100.00;100231.72;5036407;28;19918;-77
2021/12/05 12:59:05;;;;;;;;;;;;;;;5.54;100.00;100233.88;5038448;28;20268;-78
2021/12/05 13:12:39;;;;;;;;;;;;;;;5.56;100.00;100245.28;5040237;28;19921;-78
2021/12/05 13:15:05;;;;;;;;;;;;;;;5.71;100.00;100248.59;5016827;28;20372;-77
2021/12/05 13:17:43;;;;;;;;;;;;;;;5.69;100.00;100252.88;5015235;28;19917;-77
2021/12/05 13:20:09;;;;;;;;;;;;;;;5.74;100.00;100248.75;5016201;28;19917;-77
2021/12/05 13:22:55;;;;;;;;;;;;;;;5.72;100.00;100257.34;5016855;28;19917;-77
2021/12/05 13:25:20;;;;;;;;;;;;;;;5.68;100.00;100256.28;5032810;28;20230;-78
2021/12/05 13:27:47;;;;;;;;;;;;;;;5.66;100.00;100264.91;5032879;28;19924;-78
2021/12/05 13:30:26;;;;;;;;;;;;;;;5.59;100.00;100268.94;5032320;28;20411;-80
2021/12/05 13:33:11;;;;;;;;;;;;;;;5.34;100.00;100275.59;5016705;28;19917;-79
2021/12/05 13:35:40;;;;;;;;;;;;;;;5.20;100.00;100281.88;5026017;28;19935;-80
2021/12/05 13:38:06;;;;;;;;;;;;;;;5.26;100.00;100283.91;5036265;28;19923;-79
2021/12/05 13:40:33;;;;;;;;;;;;;;;5.24;100.00;100276.00;5036598;28;20291;-78
2021/12/05 13:43:07;;;;;;;;;;;;;;;5.27;100.00;100277.88;5035937;28;19920;-79
2021/12/05 13:45:35;;;;;;;;;;;;;;;5.13;100.00;100272.00;5016332;28;19917;-80
2021/12/05 13:48:02;;;;;;;;;;;;;;;5.17;100.00;100279.13;5016747;28;19963;-79
2021/12/05 13:50:35;;;;;;;;;;;;;;;5.17;100.00;100281.72;5016025;28;19919;-79
2021/12/05 13:53:03;;;;;;;;;;;;;;;5.13;100.00;100285.94;5014362;28;19916;-77
2021/12/05 13:55:39;;;;;;;;;;;;;;;5.21;100.00;100284.56;5015590;28;19916;-78
2021/12/05 13:58:24;;;;;;;;;;;;;;;5.16;100.00;100298.25;5016112;28;19924;-78
2021/12/05 14:01:08;;;;;;;;;;;;;;;5.16;100.00;100303.47;5016452;28;20027;-78
2021/12/05 14:03:52;;;;;;;;;;;;;;;5.14;100.00;100302.47;5016493;28;19953;-76
2021/12/05 14:06:30;;;;;;;;;;;;;;;5.16;100.00;100303.47;5016004;28;19921;-78
2021/12/05 14:09:06;;;;;;;;;;;;;;;4.99;100.00;100313.94;5016157;28;19963;-78
2021/12/05 14:11:32;;;;;;;;;;;;;;;5.08;100.00;100321.34;5035803;28;20400;-78
2021/12/05 14:13:57;;;;;;;;;;;;;;;4.98;100.00;100330.41;5035666;28;19948;-78
2021/12/05 14:16:29;;;;;;;;;;;;;;;4.96;100.00;100339.00;5036086;28;19947;-78
2021/12/05 14:18:55;;;;;;;;;;;;;;;4.93;100.00;100351.91;5035516;28;20337;-78
2021/12/05 14:21:23;;;;;;;;;;;;;;;4.82;100.00;100348.75;5035986;28;20005;-78
2021/12/05 14:23:56;;;;;;;;;;;;;;;4.84;100.00;100353.19;5026570;28;20313;-78
2021/12/05 14:26:25;;;;;;;;;;;;;;;4.90;100.00;100357.84;5016230;28;20375;-78
2021/12/05 14:29:05;;;;;;;;;;;;;;;4.86;100.00;100361.09;5027928;28;19966;-77
2021/12/05 14:31:32;;;;;;;;;;;;;;;4.80;100.00;100368.63;5039882;28;19956;-77
2021/12/05 14:33:58;;;;;;;;;;;;;;;4.79;100.00;100367.72;5037925;28;19920;-77
2021/12/05 14:36:29;;;;;;;;;;;;;;;4.81;100.00;100376.53;5038023;28;19917;-77
2021/12/05 14:39:15;;;;;;;;;;;;;;;4.84;100.00;100391.44;5037523;28;19916;-77
2021/12/05 14:41:41;;;;;;;;;;;;;;;4.78;100.00;100393.75;5039035;28;19939;-78
2021/12/05 14:44:06;;;;;;;;;;;;;;;4.63;100.00;100389.53;5038105;28;19921;-76
2021/12/05 14:46:32;;;;;;;;;;;;;;;4.64;100.00;100404.34;5038909;28;19980;-77
2021/12/05 14:49:03;;;;;;;;;;;;;;;4.63;100.00;100406.84;5039177;28;19927;-78
2021/12/05 14:51:33;;;;;;;;;;;;;;;4.58;100.00;100417.03;5038795;28;20299;-77
2021/12/05 14:53:58;;;;;;;;;;;;;;;4.57;100.00;100422.19;5038010;28;19927;-77
2021/12/05 14:56:27;;;;;;;;;;;;;;;4.56;100.00;100417.81;5037742;28;20237;-78
2021/12/05 14:59:03;;;;;;;;;;;;;;;4.61;100.00;100419.81;5038450;28;19917;-78
2021/12/05 15:01:29;;;;;;;;;;;;;;;4.58;100.00;100426.59;5037867;28;19920;-77
2021/12/05 15:03:54;;;;;;;;;;;;;;;4.54;100.00;100442.88;5036946;28;20348;-77
2021/12/05 15:06:19;;;;;;;;;;;;;;;4.57;100.00;100449.19;5038555;28;20340;-79
2021/12/05 15:08:45;;;;;;;;;;;;;;;4.56;100.00;100455.19;5018045;28;19924;-78
2021/12/05 15:11:11;;;;;;;;;;;;;;;4.54;100.00;100459.44;5004599;28;19925;-78
2021/12/05 15:13:37;;;;;;;;;;;;;;;4.52;100.00;100470.59;5055667;28;19970;-79
2021/12/05 15:16:04;;;;;;;;;;;;;;;4.50;100.00;100478.34;5037530;28;20007;-78
2021/12/05 15:18:32;;;;;;;;;;;;;;;4.53;100.00;100478.50;5038021;28;20383;-79
2021/12/05 15:20:58;;;;;;;;;;;;;;;4.51;100.00;100487.97;5037751;28;20061;-78
2021/12/05 15:23:27;;;;;;;;;;;;;;;4.53;100.00;100488.94;5049532;28;19960;-78
2021/12/05 15:25:53;;;;;;;;;;;;;;;4.55;100.00;100489.00;5037785;28;20322;-78
2021/12/05 15:28:18;;;;;;;;;;;;;;;4.52;100.00;100494.06;5037667;28;20011;-78
2021/12/05 15:30:45;;;;;;;;;;;;;;;4.53;100.00;100501.09;5037277;28;20406;-78
2021/12/05 15:33:13;;;;;;;;;;;;;;;4.51;100.00;100514.03;5038038;28;19916;-77
2021/12/05 15:35:38;;;;;;;;;;;;;;;4.48;100.00;100513.88;5021481;28;20011;-77
2021/12/05 15:38:09;;;;;;;;;;;;;;;4.43;100.00;100526.66;5014671;28;20003;-79
2021/12/05 15:40:35;;;;;;;;;;;;;;;4.44;100.00;100530.16;5011442;28;19924;-77
2021/12/05 15:43:03;;;;;;;;;;;;;;;4.41;100.00;100528.28;5017764;28;19913;-75
2021/12/05 15:45:28;;;;;;;;;;;;;;;4.43;100.00;100530.97;5033314;28;19928;-75
2021/12/05 15:47:53;;;;;;;;;;;;;;;4.39;100.00;100534.22;5033751;28;19920;-77
2021/12/05 15:50:20;;;;;;;;;;;;;;;4.35;100.00;100532.25;5033412;28;20257;-75
2021/12/05 15:52:47;;;;;;;;;;;;;;;4.34;100.00;100530.47;5032573;28;19917;-78
2021/12/05 15:55:18;;;;;;;;;;;;;;;4.32;100.00;100536.47;5032992;28;20360;-78
2021/12/05 15:57:46;;;;;;;;;;;;;;;4.27;100.00;100539.63;5033253;28;19944;-76
2021/12/05 16:00:23;;;;;;;;;;;;;;;4.21;100.00;100548.03;5033062;28;19979;-78
2021/12/05 16:02:55;;;;;;;;;;;;;;;4.17;100.00;100551.25;5033565;28;19916;-79
2021/12/05 16:05:22;;;;;;;;;;;;;;;4.06;100.00;100561.06;5032456;28;19959;-77
2021/12/05 16:07:48;;;;;;;;;;;;;;;4.05;100.00;100559.25;5031917;28;19917;-77
2021/12/05 16:10:15;;;;;;;;;;;;;;;4.02;100.00;100573.81;5033043;28;19917;-77
2021/12/05 16:12:41;;;;;;;;;;;;;;;4.05;100.00;100576.59;5032667;28;19932;-79
2021/12/05 16:15:07;;;;;;;;;;;;;;;4.04;100.00;100580.94;5032386;28;20011;-76
2021/12/05 16:17:34;;;;;;;;;;;;;;;4.08;100.00;100588.09;5032511;28;19917;-78
2021/12/05 16:20:09;;;;;;;;;;;;;;;4.02;100.00;100584.25;5031435;28;19917;-78
2021/12/05 16:22:53;;;;;;;;;;;;;;;4.02;100.00;100592.94;5033077;28;20317;-78
2021/12/05 16:25:18;;;;;;;;;;;;;;;4.02;100.00;100605.09;5013134;28;19913;-75
2021/12/05 16:27:51;;;;;;;;;;;;;;;4.00;100.00;100612.81;5012416;28;19917;-78
2021/12/05 16:30:24;;;;;;;;;;;;;;;4.01;100.00;100612.03;5017371;28;19921;-78
2021/12/05 16:32:49;;;;;;;;;;;;;;;4.01;100.00;100614.63;5033929;28;19917;-79
2021/12/05 16:35:30;;;;;;;;;;;;;;;4.03;100.00;100614.72;5033113;28;20384;-79
2021/12/05 16:37:56;;;;;;;;;;;;;;;4.01;100.00;100624.13;5007180;28;19917;-78
2021/12/05 16:40:21;;;;;;;;;;;;;;;3.98;100.00;100624.88;4994824;28;19972;-79
2021/12/05 16:42:46;;;;;;;;;;;;;;;3.98;100.00;100627.47;4994513;28;19960;-77
2021/12/05 16:45:12;;;;;;;;;;;;;;;3.95;100.00;100629.91;4994610;28;19968;-79
2021/12/05 16:47:43;;;;;;;;;;;;;;;3.99;100.00;100638.78;4993737;28;19921;-77
2021/12/05 16:50:13;;;;;;;;;;;;;;;3.94;100.00;100639.41;4994652;28;19913;-78
2021/12/05 16:52:44;;;;;;;;;;;;;;;3.94;100.00;100649.81;4994525;28;19921;-79
2021/12/05 16:55:23;;;;;;;;;;;;;;;3.94;100.00;100655.03;4993904;28;19953;-77
2021/12/05 16:58:34;;;;;;;;;;;;;;;3.92;100.00;100668.78;4993606;28;19918;-77
2021/12/05 17:00:40;;;;;;;;;;;;;;;3.97;100.00;100666.47;4988435;28;19924;-76
2021/12/05 17:03:07;;;;;;;;;;;;;;;3.95;100.00;100677.69;4992059;28;20358;-75
2021/12/05 17:05:36;;;;;;;;;;;;;;;3.91;100.00;100680.91;4993615;28;19918;-78
2021/12/05 17:08:13;;;;;;;;;;;;;;;3.91;100.00;100687.81;4992915;28;20013;-79
2021/12/05 17:10:42;;;;;;;;;;;;;;;3.87;100.00;100694.56;4993669;28;19918;-76
2021/12/05 17:13:07;;;;;;;;;;;;;;;3.82;100.00;100701.19;4993434;28;20008;-78
2021/12/05 17:15:33;;;;;;;;;;;;;;;3.84;100.00;100711.69;4993783;28;19957;-79
2021/12/05 17:18:03;;;;;;;;;;;;;;;3.85;100.00;100722.22;4993133;28;19987;-78
2021/12/05 17:20:37;;;;;;;;;;;;;;;3.82;100.00;100729.84;5008668;28;19921;-76
2021/12/05 17:23:12;;;;;;;;;;;;;;;3.82;100.00;100728.94;5011258;28;19979;-77
2021/12/05 17:25:43;;;;;;;;;;;;;;;3.82;100.00;100728.94;5012761;28;20162;-75
2021/12/05 17:28:14;;;;;;;;;;;;;;;3.81;100.00;100738.47;5012476;28;20543;-79
2021/12/05 17:30:50;;;;;;;;;;;;;;;3.77;100.00;100744.28;5012081;28;19967;-76
2021/12/05 17:33:26;;;;;;;;;;;;;;;3.78;100.00;100747.00;5012110;28;20363;-75
2021/12/05 17:35:52;;;;;;;;;;;;;;;3.76;100.00;100743.41;5012224;28;19971;-77
2021/12/05 17:38:29;;;;;;;;;;;;;;;3.77;100.00;100754.72;5011269;28;20364;-76
2021/12/05 17:40:54;;;;;;;;;;;;;;;3.74;100.00;100770.16;4995860;28;20318;-76
2021/12/05 17:43:19;;;;;;;;;;;;;;;3.71;100.00;100765.66;5011833;28;19928;-77
2021/12/05 17:45:45;;;;;;;;;;;;;;;3.72;100.00;100769.16;5011648;28;19917;-79
2021/12/05 17:48:12;;;;;;;;;;;;;;;3.72;100.00;100777.88;5012075;28;20322;-78
2021/12/05 17:50:39;;;;;;;;;;;;;;;3.68;100.00;100788.91;5011426;28;20016;-77
2021/12/05 17:53:04;;;;;;;;;;;;;;;3.65;100.00;100795.63;5011655;28;20008;-78
2021/12/05 17:55:32;;;;;;;;;;;;;;;3.62;100.00;100803.22;5011544;28;20469;-75
2021/12/05 17:58:00;;;;;;;;;;;;;;;3.59;100.00;100799.66;5010907;28;19921;-76
2021/12/05 18:02:58;;;;;;;;;;;;;;;3.54;100.00;100801.06;5012909;28;19918;-77
2021/12/05 18:05:35;;;;;;;;;;;;;;;3.49;100.00;100794.66;5013357;28;19960;-75
2021/12/05 18:08:07;;;;;;;;;;;;;;;3.51;100.00;100803.47;5014740;28;19980;-75
2021/12/05 18:10:35;;;;;;;;;;;;;;;3.47;100.00;100801.47;5015203;28;19947;-77
2021/12/05 18:13:03;;;;;;;;;;;;;;;3.46;100.00;100810.06;5004995;28;19929;-78
2021/12/05 18:15:29;;;;;;;;;;;;;;;3.47;100.00;100811.88;5015411;28;19929;-78
2021/12/05 18:17:57;;;;;;;;;;;;;;;3.47;100.00;100817.09;5015465;28;19913;-77
2021/12/05 18:20:25;;;;;;;;;;;;;;;3.48;100.00;100828.41;5015313;28;19925;-78
2021/12/05 18:22:51;;;;;;;;;;;;;;;3.47;100.00;100831.81;5013896;28;19914;-78